sensor_id;sensor_type;location;lat;lon;timestamp;temperature;humidity
16532;DHT22;66872;63.142;14.482;2023-12-22T00:00:24;15.90;26.90
16532;DHT22;66872;63.142;14.482;2023-12-22T00:02:49;15.90;26.90
16532;DHT22;66872;63.142;14.482;2023-12-22T00:05:15;15.90;26.90
16532;DHT22;66872;63.142;14.482;2023-12-22T00:07:40;15.90;26.90
16532;DHT22;66872;63.142;14.482;2023-12-22T00:10:06;15.90;26.90
16532;DHT22;66872;63.142;14.482;2023-12-22T00:12:32;15.90;26.80
16532;DHT22;66872;63.142;14.482;2023-12-22T00:14:58;15.90;26.90
16532;DHT22;66872;63.142;14.482;2023-12-22T00:17:23;15.90;26.80
16532;DHT22;66872;63.142;14.482;2023-12-22T00:19:49;15.80;26.80
16532;DHT22;66872;63.142;14.482;2023-12-22T00:22:15;15.90;26.80
16532;DHT22;66872;63.142;14.482;2023-12-22T00:24:40;15.80;26.80
16532;DHT22;66872;63.142;14.482;2023-12-22T00:27:06;15.80;26.80
16532;DHT22;66872;63.142;14.482;2023-12-22T00:29:31;15.80;26.80
16532;DHT22;66872;63.142;14.482;2023-12-22T00:32:01;15.80;26.80
16532;DHT22;66872;63.142;14.482;2023-12-22T00:34:26;15.80;26.80
16532;DHT22;66872;63.142;14.482;2023-12-22T00:36:52;15.80;26.80
16532;DHT22;66872;63.142;14.482;2023-12-22T00:39:18;15.80;26.80
16532;DHT22;66872;63.142;14.482;2023-12-22T00:41:43;15.80;26.80
16532;DHT22;66872;63.142;14.482;2023-12-22T00:44:09;15.80;26.80
16532;DHT22;66872;63.142;14.482;2023-12-22T00:46:34;15.80;26.80
16532;DHT22;66872;63.142;14.482;2023-12-22T00:49:00;15.80;26.80
16532;DHT22;66872;63.142;14.482;2023-12-22T00:51:26;15.80;26.80
16532;DHT22;66872;63.142;14.482;2023-12-22T00:53:51;15.80;26.80
16532;DHT22;66872;63.142;14.482;2023-12-22T00:56:17;15.80;26.70
16532;DHT22;66872;63.142;14.482;2023-12-22T00:58:43;15.80;26.70
16532;DHT22;66872;63.142;14.482;2023-12-22T01:01:08;15.80;26.70
16532;DHT22;66872;63.142;14.482;2023-12-22T01:03:34;15.80;26.70
16532;DHT22;66872;63.142;14.482;2023-12-22T01:06:00;15.80;26.70
16532;DHT22;66872;63.142;14.482;2023-12-22T01:08:26;15.80;26.60
16532;DHT22;66872;63.142;14.482;2023-12-22T01:10:51;15.80;26.70
16532;DHT22;66872;63.142;14.482;2023-12-22T01:13:17;15.80;26.60
16532;DHT22;66872;63.142;14.482;2023-12-22T01:15:42;15.80;26.60
16532;DHT22;66872;63.142;14.482;2023-12-22T01:18:10;15.80;26.60
16532;DHT22;66872;63.142;14.482;2023-12-22T01:20:35;15.80;26.60
16532;DHT22;66872;63.142;14.482;2023-12-22T01:23:01;15.80;26.70
16532;DHT22;66872;63.142;14.482;2023-12-22T01:25:27;15.80;26.70
16532;DHT22;66872;63.142;14.482;2023-12-22T01:27:52;15.80;26.70
16532;DHT22;66872;63.142;14.482;2023-12-22T01:30:18;15.80;26.70
16532;DHT22;66872;63.142;14.482;2023-12-22T01:32:44;15.80;26.80
16532;DHT22;66872;63.142;14.482;2023-12-22T01:35:10;15.80;26.80
16532;DHT22;66872;63.142;14.482;2023-12-22T01:37:36;15.80;26.80
16532;DHT22;66872;63.142;14.482;2023-12-22T01:40:03;15.80;26.80
16532;DHT22;66872;63.142;14.482;2023-12-22T01:42:29;15.80;26.80
16532;DHT22;66872;63.142;14.482;2023-12-22T01:44:55;15.80;26.80
16532;DHT22;66872;63.142;14.482;2023-12-22T01:47:20;15.80;26.80
16532;DHT22;66872;63.142;14.482;2023-12-22T01:49:47;15.80;26.90
16532;DHT22;66872;63.142;14.482;2023-12-22T01:52:13;15.80;26.90
16532;DHT22;66872;63.142;14.482;2023-12-22T01:54:39;15.80;26.90
16532;DHT22;66872;63.142;14.482;2023-12-22T01:57:06;15.80;26.90
16532;DHT22;66872;63.142;14.482;2023-12-22T01:59:32;15.80;26.90
16532;DHT22;66872;63.142;14.482;2023-12-22T02:02:01;15.80;26.90
16532;DHT22;66872;63.142;14.482;2023-12-22T02:04:27;15.80;27.00
16532;DHT22;66872;63.142;14.482;2023-12-22T02:06:55;15.80;26.90
16532;DHT22;66872;63.142;14.482;2023-12-22T02:09:22;15.80;27.40
16532;DHT22;66872;63.142;14.482;2023-12-22T02:11:47;15.80;26.90
16532;DHT22;66872;63.142;14.482;2023-12-22T02:14:13;15.80;26.90
16532;DHT22;66872;63.142;14.482;2023-12-22T02:16:40;15.80;26.90
16532;DHT22;66872;63.142;14.482;2023-12-22T02:22:07;15.80;26.90
16532;DHT22;66872;63.142;14.482;2023-12-22T02:24:33;15.80;26.90
16532;DHT22;66872;63.142;14.482;2023-12-22T02:27:36;15.80;26.90
16532;DHT22;66872;63.142;14.482;2023-12-22T02:33:01;15.80;26.90
16532;DHT22;66872;63.142;14.482;2023-12-22T02:35:30;15.80;26.90
16532;DHT22;66872;63.142;14.482;2023-12-22T02:37:57;15.80;26.90
16532;DHT22;66872;63.142;14.482;2023-12-22T02:40:25;15.80;26.90
16532;DHT22;66872;63.142;14.482;2023-12-22T02:42:52;15.90;26.90
16532;DHT22;66872;63.142;14.482;2023-12-22T02:45:19;15.80;27.10
16532;DHT22;66872;63.142;14.482;2023-12-22T02:47:46;15.80;26.90
16532;DHT22;66872;63.142;14.482;2023-12-22T02:50:13;15.80;26.90
16532;DHT22;66872;63.142;14.482;2023-12-22T02:52:39;15.80;27.00
16532;DHT22;66872;63.142;14.482;2023-12-22T02:55:05;15.80;26.90
16532;DHT22;66872;63.142;14.482;2023-12-22T02:57:31;15.80;26.90
16532;DHT22;66872;63.142;14.482;2023-12-22T02:59:57;15.80;27.00
16532;DHT22;66872;63.142;14.482;2023-12-22T03:02:23;15.80;27.00
16532;DHT22;66872;63.142;14.482;2023-12-22T03:04:49;15.80;27.00
16532;DHT22;66872;63.142;14.482;2023-12-22T03:07:14;15.80;26.90
16532;DHT22;66872;63.142;14.482;2023-12-22T03:09:41;15.80;26.90
16532;DHT22;66872;63.142;14.482;2023-12-22T03:12:08;15.80;26.90
16532;DHT22;66872;63.142;14.482;2023-12-22T03:14:34;15.80;27.00
16532;DHT22;66872;63.142;14.482;2023-12-22T03:17:00;15.80;27.00
16532;DHT22;66872;63.142;14.482;2023-12-22T03:19:26;15.80;26.90
16532;DHT22;66872;63.142;14.482;2023-12-22T03:21:52;15.80;27.00
16532;DHT22;66872;63.142;14.482;2023-12-22T03:24:17;15.80;27.00
16532;DHT22;66872;63.142;14.482;2023-12-22T03:26:48;15.80;26.90
16532;DHT22;66872;63.142;14.482;2023-12-22T03:29:14;15.80;26.90
16532;DHT22;66872;63.142;14.482;2023-12-22T03:31:40;15.80;27.00
16532;DHT22;66872;63.142;14.482;2023-12-22T03:34:05;15.80;27.00
16532;DHT22;66872;63.142;14.482;2023-12-22T03:36:31;15.80;27.00
16532;DHT22;66872;63.142;14.482;2023-12-22T03:38:57;15.80;27.00
16532;DHT22;66872;63.142;14.482;2023-12-22T03:41:22;15.80;27.00
16532;DHT22;66872;63.142;14.482;2023-12-22T03:43:48;15.80;27.00
16532;DHT22;66872;63.142;14.482;2023-12-22T03:46:14;15.80;27.00
16532;DHT22;66872;63.142;14.482;2023-12-22T03:48:40;15.80;27.00
16532;DHT22;66872;63.142;14.482;2023-12-22T03:51:05;15.80;27.00
16532;DHT22;66872;63.142;14.482;2023-12-22T03:53:31;15.80;27.10
16532;DHT22;66872;63.142;14.482;2023-12-22T03:55:56;15.80;27.00
16532;DHT22;66872;63.142;14.482;2023-12-22T03:58:22;15.80;27.00
16532;DHT22;66872;63.142;14.482;2023-12-22T04:00:48;15.80;27.00
16532;DHT22;66872;63.142;14.482;2023-12-22T04:03:14;15.80;27.10
16532;DHT22;66872;63.142;14.482;2023-12-22T04:05:39;15.80;27.10
16532;DHT22;66872;63.142;14.482;2023-12-22T04:08:05;15.80;27.10
16532;DHT22;66872;63.142;14.482;2023-12-22T04:10:31;15.80;27.10
16532;DHT22;66872;63.142;14.482;2023-12-22T04:12:57;15.80;27.10
16532;DHT22;66872;63.142;14.482;2023-12-22T04:15:22;15.90;27.10
16532;DHT22;66872;63.142;14.482;2023-12-22T04:17:48;15.80;27.00
16532;DHT22;66872;63.142;14.482;2023-12-22T04:20:15;15.90;27.10
16532;DHT22;66872;63.142;14.482;2023-12-22T04:22:40;15.80;27.10
16532;DHT22;66872;63.142;14.482;2023-12-22T04:25:07;15.80;27.10
16532;DHT22;66872;63.142;14.482;2023-12-22T04:27:33;15.90;27.10
16532;DHT22;66872;63.142;14.482;2023-12-22T04:29:59;15.80;27.10
16532;DHT22;66872;63.142;14.482;2023-12-22T04:32:25;15.90;27.10
16532;DHT22;66872;63.142;14.482;2023-12-22T04:34:50;15.90;27.10
16532;DHT22;66872;63.142;14.482;2023-12-22T04:37:16;15.90;27.10
16532;DHT22;66872;63.142;14.482;2023-12-22T04:39:41;15.90;27.20
16532;DHT22;66872;63.142;14.482;2023-12-22T04:42:07;15.80;27.10
16532;DHT22;66872;63.142;14.482;2023-12-22T04:44:32;15.90;27.10
16532;DHT22;66872;63.142;14.482;2023-12-22T04:46:58;15.90;27.10
16532;DHT22;66872;63.142;14.482;2023-12-22T04:49:24;15.90;27.10
16532;DHT22;66872;63.142;14.482;2023-12-22T04:51:49;15.90;27.10
16532;DHT22;66872;63.142;14.482;2023-12-22T04:54:15;15.90;27.10
16532;DHT22;66872;63.142;14.482;2023-12-22T04:56:40;15.90;27.10
16532;DHT22;66872;63.142;14.482;2023-12-22T04:59:06;15.90;27.10
16532;DHT22;66872;63.142;14.482;2023-12-22T05:01:32;15.90;27.10
16532;DHT22;66872;63.142;14.482;2023-12-22T05:03:57;15.90;27.10
16532;DHT22;66872;63.142;14.482;2023-12-22T05:06:23;15.90;27.10
16532;DHT22;66872;63.142;14.482;2023-12-22T05:08:48;15.90;27.10
16532;DHT22;66872;63.142;14.482;2023-12-22T05:11:14;15.90;27.10
16532;DHT22;66872;63.142;14.482;2023-12-22T05:13:40;15.90;27.10
16532;DHT22;66872;63.142;14.482;2023-12-22T05:16:07;15.90;27.10
16532;DHT22;66872;63.142;14.482;2023-12-22T05:18:33;15.90;27.10
16532;DHT22;66872;63.142;14.482;2023-12-22T05:20:58;15.90;27.10
16532;DHT22;66872;63.142;14.482;2023-12-22T05:23:24;15.90;27.60
16532;DHT22;66872;63.142;14.482;2023-12-22T05:25:50;15.90;27.10
16532;DHT22;66872;63.142;14.482;2023-12-22T05:28:16;15.90;27.10
16532;DHT22;66872;63.142;14.482;2023-12-22T05:30:42;15.90;27.10
16532;DHT22;66872;63.142;14.482;2023-12-22T05:33:08;15.90;27.10
16532;DHT22;66872;63.142;14.482;2023-12-22T05:35:33;15.90;27.10
16532;DHT22;66872;63.142;14.482;2023-12-22T05:37:59;15.90;27.60
16532;DHT22;66872;63.142;14.482;2023-12-22T05:40:24;15.90;27.10
16532;DHT22;66872;63.142;14.482;2023-12-22T05:42:50;15.90;27.10
16532;DHT22;66872;63.142;14.482;2023-12-22T05:45:16;15.90;27.10
16532;DHT22;66872;63.142;14.482;2023-12-22T05:47:41;15.90;27.10
16532;DHT22;66872;63.142;14.482;2023-12-22T05:50:07;15.90;27.10
16532;DHT22;66872;63.142;14.482;2023-12-22T05:52:33;15.90;27.10
16532;DHT22;66872;63.142;14.482;2023-12-22T05:54:59;15.90;27.10
16532;DHT22;66872;63.142;14.482;2023-12-22T05:57:25;15.90;27.10
16532;DHT22;66872;63.142;14.482;2023-12-22T05:59:51;15.90;27.10
16532;DHT22;66872;63.142;14.482;2023-12-22T06:02:16;15.90;27.10
16532;DHT22;66872;63.142;14.482;2023-12-22T06:04:42;15.90;27.10
16532;DHT22;66872;63.142;14.482;2023-12-22T06:07:10;15.90;27.10
16532;DHT22;66872;63.142;14.482;2023-12-22T06:09:35;15.90;27.10
16532;DHT22;66872;63.142;14.482;2023-12-22T06:12:01;15.90;27.10
16532;DHT22;66872;63.142;14.482;2023-12-22T06:14:27;15.90;27.10
16532;DHT22;66872;63.142;14.482;2023-12-22T06:16:52;15.90;27.10
16532;DHT22;66872;63.142;14.482;2023-12-22T06:19:19;15.90;27.10
16532;DHT22;66872;63.142;14.482;2023-12-22T06:21:44;15.90;27.10
16532;DHT22;66872;63.142;14.482;2023-12-22T06:24:10;15.90;27.10
16532;DHT22;66872;63.142;14.482;2023-12-22T06:26:36;15.90;27.10
16532;DHT22;66872;63.142;14.482;2023-12-22T06:29:02;15.90;27.10
16532;DHT22;66872;63.142;14.482;2023-12-22T06:31:29;15.90;27.10
16532;DHT22;66872;63.142;14.482;2023-12-22T06:33:54;15.90;27.10
16532;DHT22;66872;63.142;14.482;2023-12-22T06:36:26;15.90;27.10
16532;DHT22;66872;63.142;14.482;2023-12-22T06:38:52;15.90;27.10
16532;DHT22;66872;63.142;14.482;2023-12-22T06:41:22;15.90;27.10
16532;DHT22;66872;63.142;14.482;2023-12-22T06:43:48;15.90;27.10
16532;DHT22;66872;63.142;14.482;2023-12-22T06:46:22;15.90;27.10
16532;DHT22;66872;63.142;14.482;2023-12-22T06:48:48;15.90;27.10
16532;DHT22;66872;63.142;14.482;2023-12-22T06:51:30;15.90;27.20
16532;DHT22;66872;63.142;14.482;2023-12-22T06:53:57;15.90;27.10
16532;DHT22;66872;63.142;14.482;2023-12-22T06:56:24;15.90;27.20
16532;DHT22;66872;63.142;14.482;2023-12-22T06:58:52;15.90;27.10
16532;DHT22;66872;63.142;14.482;2023-12-22T07:01:26;15.80;27.10
16532;DHT22;66872;63.142;14.482;2023-12-22T07:03:52;15.90;27.10
16532;DHT22;66872;63.142;14.482;2023-12-22T07:06:19;15.90;27.10
16532;DHT22;66872;63.142;14.482;2023-12-22T07:08:46;15.90;27.10
16532;DHT22;66872;63.142;14.482;2023-12-22T07:11:20;15.90;27.10
16532;DHT22;66872;63.142;14.482;2023-12-22T07:13:45;15.90;27.10
16532;DHT22;66872;63.142;14.482;2023-12-22T07:16:11;15.90;27.10
16532;DHT22;66872;63.142;14.482;2023-12-22T07:18:38;15.90;27.10
16532;DHT22;66872;63.142;14.482;2023-12-22T07:21:03;15.90;27.10
16532;DHT22;66872;63.142;14.482;2023-12-22T07:23:29;15.90;27.10
16532;DHT22;66872;63.142;14.482;2023-12-22T07:25:55;15.90;27.10
16532;DHT22;66872;63.142;14.482;2023-12-22T07:28:20;15.90;27.10
16532;DHT22;66872;63.142;14.482;2023-12-22T07:30:46;15.90;27.10
16532;DHT22;66872;63.142;14.482;2023-12-22T07:33:11;15.90;27.10
16532;DHT22;66872;63.142;14.482;2023-12-22T07:35:37;15.90;27.10
16532;DHT22;66872;63.142;14.482;2023-12-22T07:38:03;15.90;27.10
16532;DHT22;66872;63.142;14.482;2023-12-22T07:40:28;15.90;27.10
16532;DHT22;66872;63.142;14.482;2023-12-22T07:42:57;15.90;27.10
16532;DHT22;66872;63.142;14.482;2023-12-22T07:45:23;15.90;27.10
16532;DHT22;66872;63.142;14.482;2023-12-22T07:47:49;15.90;27.10
16532;DHT22;66872;63.142;14.482;2023-12-22T07:50:15;15.90;27.10
16532;DHT22;66872;63.142;14.482;2023-12-22T07:52:40;15.90;27.10
16532;DHT22;66872;63.142;14.482;2023-12-22T07:55:09;15.90;27.10
16532;DHT22;66872;63.142;14.482;2023-12-22T07:57:38;15.90;27.10
16532;DHT22;66872;63.142;14.482;2023-12-22T08:00:05;15.90;27.10
16532;DHT22;66872;63.142;14.482;2023-12-22T08:02:31;15.90;27.10
16532;DHT22;66872;63.142;14.482;2023-12-22T08:04:57;15.90;27.10
16532;DHT22;66872;63.142;14.482;2023-12-22T08:07:23;15.90;27.10
16532;DHT22;66872;63.142;14.482;2023-12-22T08:09:48;15.90;27.10
16532;DHT22;66872;63.142;14.482;2023-12-22T08:12:14;15.90;27.10
16532;DHT22;66872;63.142;14.482;2023-12-22T08:14:40;15.90;27.10
16532;DHT22;66872;63.142;14.482;2023-12-22T08:17:06;15.90;27.10
16532;DHT22;66872;63.142;14.482;2023-12-22T08:19:32;15.90;27.10
16532;DHT22;66872;63.142;14.482;2023-12-22T08:21:57;15.90;27.10
16532;DHT22;66872;63.142;14.482;2023-12-22T08:24:23;15.90;27.10
16532;DHT22;66872;63.142;14.482;2023-12-22T08:26:50;15.90;27.10
16532;DHT22;66872;63.142;14.482;2023-12-22T08:29:15;15.90;27.10
16532;DHT22;66872;63.142;14.482;2023-12-22T08:31:41;15.90;27.10
16532;DHT22;66872;63.142;14.482;2023-12-22T08:34:07;15.90;27.10
16532;DHT22;66872;63.142;14.482;2023-12-22T08:36:33;15.90;27.10
16532;DHT22;66872;63.142;14.482;2023-12-22T08:38:58;15.90;27.10
16532;DHT22;66872;63.142;14.482;2023-12-22T08:41:24;15.90;27.10
16532;DHT22;66872;63.142;14.482;2023-12-22T08:43:50;15.90;27.10
16532;DHT22;66872;63.142;14.482;2023-12-22T08:46:16;15.90;27.10
16532;DHT22;66872;63.142;14.482;2023-12-22T08:48:42;15.90;27.10
16532;DHT22;66872;63.142;14.482;2023-12-22T08:51:08;15.90;27.10
16532;DHT22;66872;63.142;14.482;2023-12-22T08:53:35;15.90;27.10
16532;DHT22;66872;63.142;14.482;2023-12-22T08:56:03;15.90;27.10
16532;DHT22;66872;63.142;14.482;2023-12-22T08:58:29;15.90;27.10
16532;DHT22;66872;63.142;14.482;2023-12-22T09:00:55;15.90;27.10
16532;DHT22;66872;63.142;14.482;2023-12-22T09:03:21;15.90;27.20
16532;DHT22;66872;63.142;14.482;2023-12-22T09:05:46;15.90;27.10
16532;DHT22;66872;63.142;14.482;2023-12-22T09:08:15;15.90;27.10
16532;DHT22;66872;63.142;14.482;2023-12-22T09:10:41;15.90;27.10
16532;DHT22;66872;63.142;14.482;2023-12-22T09:13:07;15.90;27.10
16532;DHT22;66872;63.142;14.482;2023-12-22T09:15:32;15.90;27.10
16532;DHT22;66872;63.142;14.482;2023-12-22T09:17:58;15.90;26.90
16532;DHT22;66872;63.142;14.482;2023-12-22T09:20:24;15.90;26.70
16532;DHT22;66872;63.142;14.482;2023-12-22T09:22:49;15.90;26.70
16532;DHT22;66872;63.142;14.482;2023-12-22T09:25:15;15.90;26.60
16532;DHT22;66872;63.142;14.482;2023-12-22T09:27:41;15.90;26.60
16532;DHT22;66872;63.142;14.482;2023-12-22T09:30:07;15.90;26.60
16532;DHT22;66872;63.142;14.482;2023-12-22T09:32:33;15.90;26.60
16532;DHT22;66872;63.142;14.482;2023-12-22T09:34:58;15.90;26.60
16532;DHT22;66872;63.142;14.482;2023-12-22T09:37:26;15.90;26.70
16532;DHT22;66872;63.142;14.482;2023-12-22T09:39:52;15.90;26.70
16532;DHT22;66872;63.142;14.482;2023-12-22T09:42:17;15.90;26.70
16532;DHT22;66872;63.142;14.482;2023-12-22T09:44:44;15.90;26.70
16532;DHT22;66872;63.142;14.482;2023-12-22T09:47:12;15.90;26.70
16532;DHT22;66872;63.142;14.482;2023-12-22T09:49:39;15.90;26.70
16532;DHT22;66872;63.142;14.482;2023-12-22T09:52:06;15.90;26.80
16532;DHT22;66872;63.142;14.482;2023-12-22T09:54:33;15.90;26.80
16532;DHT22;66872;63.142;14.482;2023-12-22T09:57:02;15.90;26.80
16532;DHT22;66872;63.142;14.482;2023-12-22T09:59:28;15.90;26.80
16532;DHT22;66872;63.142;14.482;2023-12-22T10:01:55;15.90;26.80
16532;DHT22;66872;63.142;14.482;2023-12-22T10:04:23;15.90;26.80
16532;DHT22;66872;63.142;14.482;2023-12-22T10:06:49;15.90;26.80
16532;DHT22;66872;63.142;14.482;2023-12-22T10:09:16;15.90;26.80
16532;DHT22;66872;63.142;14.482;2023-12-22T10:11:44;15.90;26.80
16532;DHT22;66872;63.142;14.482;2023-12-22T10:14:10;15.90;26.80
16532;DHT22;66872;63.142;14.482;2023-12-22T10:16:36;15.90;26.80
16532;DHT22;66872;63.142;14.482;2023-12-22T10:19:03;15.90;26.80
16532;DHT22;66872;63.142;14.482;2023-12-22T10:21:29;15.90;26.80
16532;DHT22;66872;63.142;14.482;2023-12-22T10:23:57;15.90;26.80
16532;DHT22;66872;63.142;14.482;2023-12-22T10:26:22;15.90;26.80
16532;DHT22;66872;63.142;14.482;2023-12-22T10:28:48;15.90;26.80
16532;DHT22;66872;63.142;14.482;2023-12-22T10:31:17;15.90;26.80
16532;DHT22;66872;63.142;14.482;2023-12-22T10:33:44;15.90;26.80
16532;DHT22;66872;63.142;14.482;2023-12-22T10:36:10;15.90;26.80
16532;DHT22;66872;63.142;14.482;2023-12-22T10:38:36;15.90;26.90
16532;DHT22;66872;63.142;14.482;2023-12-22T10:41:06;15.90;26.90
16532;DHT22;66872;63.142;14.482;2023-12-22T10:43:39;15.90;26.90
16532;DHT22;66872;63.142;14.482;2023-12-22T10:46:06;15.90;26.90
16532;DHT22;66872;63.142;14.482;2023-12-22T10:48:33;15.90;26.90
16532;DHT22;66872;63.142;14.482;2023-12-22T10:50:59;15.90;26.90
16532;DHT22;66872;63.142;14.482;2023-12-22T10:53:25;15.90;26.90
16532;DHT22;66872;63.142;14.482;2023-12-22T10:55:51;15.90;26.90
16532;DHT22;66872;63.142;14.482;2023-12-22T10:58:17;15.90;26.90
16532;DHT22;66872;63.142;14.482;2023-12-22T11:00:45;15.90;26.90
16532;DHT22;66872;63.142;14.482;2023-12-22T11:03:16;15.80;26.90
16532;DHT22;66872;63.142;14.482;2023-12-22T11:05:46;15.80;27.00
16532;DHT22;66872;63.142;14.482;2023-12-22T11:08:12;15.80;27.00
16532;DHT22;66872;63.142;14.482;2023-12-22T11:10:42;15.90;27.00
16532;DHT22;66872;63.142;14.482;2023-12-22T11:13:09;15.90;27.00
16532;DHT22;66872;63.142;14.482;2023-12-22T11:15:36;15.90;27.00
16532;DHT22;66872;63.142;14.482;2023-12-22T11:18:04;15.90;27.00
16532;DHT22;66872;63.142;14.482;2023-12-22T11:20:32;15.90;27.00
16532;DHT22;66872;63.142;14.482;2023-12-22T11:22:59;15.90;27.00
16532;DHT22;66872;63.142;14.482;2023-12-22T11:25:26;15.90;27.00
16532;DHT22;66872;63.142;14.482;2023-12-22T11:27:53;15.90;27.00
16532;DHT22;66872;63.142;14.482;2023-12-22T11:30:20;15.90;27.00
16532;DHT22;66872;63.142;14.482;2023-12-22T11:32:49;15.90;27.00
16532;DHT22;66872;63.142;14.482;2023-12-22T11:35:15;15.90;27.00
16532;DHT22;66872;63.142;14.482;2023-12-22T11:37:42;15.90;27.00
16532;DHT22;66872;63.142;14.482;2023-12-22T11:40:09;15.90;27.00
16532;DHT22;66872;63.142;14.482;2023-12-22T11:42:38;15.90;27.00
16532;DHT22;66872;63.142;14.482;2023-12-22T11:45:10;15.90;27.00
16532;DHT22;66872;63.142;14.482;2023-12-22T11:47:37;15.90;27.00
16532;DHT22;66872;63.142;14.482;2023-12-22T11:50:03;15.90;27.00
16532;DHT22;66872;63.142;14.482;2023-12-22T11:52:29;15.90;27.10
16532;DHT22;66872;63.142;14.482;2023-12-22T11:54:55;15.90;27.10
16532;DHT22;66872;63.142;14.482;2023-12-22T11:59:54;15.90;27.00
16532;DHT22;66872;63.142;14.482;2023-12-22T12:02:21;15.90;27.00
16532;DHT22;66872;63.142;14.482;2023-12-22T12:04:50;15.90;27.00
16532;DHT22;66872;63.142;14.482;2023-12-22T12:07:45;15.90;27.00
16532;DHT22;66872;63.142;14.482;2023-12-22T12:13:22;15.90;27.00
16532;DHT22;66872;63.142;14.482;2023-12-22T12:15:50;15.90;27.00
16532;DHT22;66872;63.142;14.482;2023-12-22T12:18:22;15.90;27.00
16532;DHT22;66872;63.142;14.482;2023-12-22T12:20:48;15.90;27.00
16532;DHT22;66872;63.142;14.482;2023-12-22T12:23:15;15.90;27.00
16532;DHT22;66872;63.142;14.482;2023-12-22T12:25:42;15.90;27.00
16532;DHT22;66872;63.142;14.482;2023-12-22T12:28:08;15.90;27.00
16532;DHT22;66872;63.142;14.482;2023-12-22T12:30:36;15.90;27.00
16532;DHT22;66872;63.142;14.482;2023-12-22T12:33:09;15.90;27.00
16532;DHT22;66872;63.142;14.482;2023-12-22T12:35:36;15.90;27.00
16532;DHT22;66872;63.142;14.482;2023-12-22T12:38:03;15.90;27.00
16532;DHT22;66872;63.142;14.482;2023-12-22T12:40:29;15.90;27.00
16532;DHT22;66872;63.142;14.482;2023-12-22T12:42:56;16.00;27.10
16532;DHT22;66872;63.142;14.482;2023-12-22T12:45:22;15.90;27.00
16532;DHT22;66872;63.142;14.482;2023-12-22T12:48:09;15.90;27.00
16532;DHT22;66872;63.142;14.482;2023-12-22T12:50:34;15.90;27.00
16532;DHT22;66872;63.142;14.482;2023-12-22T12:53:01;15.90;27.00
16532;DHT22;66872;63.142;14.482;2023-12-22T12:55:27;15.90;27.00
16532;DHT22;66872;63.142;14.482;2023-12-22T12:57:55;15.90;27.00
16532;DHT22;66872;63.142;14.482;2023-12-22T13:00:27;15.90;27.00
16532;DHT22;66872;63.142;14.482;2023-12-22T13:02:55;15.90;27.00
16532;DHT22;66872;63.142;14.482;2023-12-22T13:05:24;15.90;27.00
16532;DHT22;66872;63.142;14.482;2023-12-22T13:07:50;15.90;27.00
16532;DHT22;66872;63.142;14.482;2023-12-22T13:10:25;15.90;27.00
16532;DHT22;66872;63.142;14.482;2023-12-22T13:12:51;15.90;27.00
16532;DHT22;66872;63.142;14.482;2023-12-22T13:15:20;15.90;27.00
16532;DHT22;66872;63.142;14.482;2023-12-22T13:17:47;15.90;27.00
16532;DHT22;66872;63.142;14.482;2023-12-22T13:20:13;15.90;27.00
16532;DHT22;66872;63.142;14.482;2023-12-22T13:22:39;15.90;26.90
16532;DHT22;66872;63.142;14.482;2023-12-22T13:25:05;15.90;27.00
16532;DHT22;66872;63.142;14.482;2023-12-22T13:27:31;15.90;27.00
16532;DHT22;66872;63.142;14.482;2023-12-22T13:29:56;15.90;27.00
16532;DHT22;66872;63.142;14.482;2023-12-22T13:32:22;15.90;27.00
16532;DHT22;66872;63.142;14.482;2023-12-22T13:34:58;15.90;27.00
16532;DHT22;66872;63.142;14.482;2023-12-22T13:37:25;15.90;27.00
16532;DHT22;66872;63.142;14.482;2023-12-22T13:39:51;15.90;27.00
16532;DHT22;66872;63.142;14.482;2023-12-22T13:42:18;15.90;27.00
16532;DHT22;66872;63.142;14.482;2023-12-22T13:44:47;15.90;27.00
16532;DHT22;66872;63.142;14.482;2023-12-22T13:47:18;15.90;27.00
16532;DHT22;66872;63.142;14.482;2023-12-22T13:49:45;15.90;27.00
16532;DHT22;66872;63.142;14.482;2023-12-22T13:52:26;15.90;27.00
16532;DHT22;66872;63.142;14.482;2023-12-22T13:54:53;15.90;27.00
16532;DHT22;66872;63.142;14.482;2023-12-22T13:57:22;15.90;27.00
16532;DHT22;66872;63.142;14.482;2023-12-22T13:59:47;15.90;27.00
16532;DHT22;66872;63.142;14.482;2023-12-22T14:02:13;15.90;27.00
16532;DHT22;66872;63.142;14.482;2023-12-22T14:04:39;15.90;27.00
16532;DHT22;66872;63.142;14.482;2023-12-22T14:07:05;15.90;27.00
16532;DHT22;66872;63.142;14.482;2023-12-22T14:09:30;15.90;27.00
16532;DHT22;66872;63.142;14.482;2023-12-22T14:11:59;15.90;27.00
16532;DHT22;66872;63.142;14.482;2023-12-22T14:14:24;15.90;27.00
16532;DHT22;66872;63.142;14.482;2023-12-22T14:16:50;15.90;26.90
16532;DHT22;66872;63.142;14.482;2023-12-22T14:19:16;15.90;27.00
16532;DHT22;66872;63.142;14.482;2023-12-22T14:21:41;15.90;27.00
16532;DHT22;66872;63.142;14.482;2023-12-22T14:24:07;15.90;27.00
16532;DHT22;66872;63.142;14.482;2023-12-22T14:26:33;15.90;27.00
16532;DHT22;66872;63.142;14.482;2023-12-22T14:28:58;15.90;27.00
16532;DHT22;66872;63.142;14.482;2023-12-22T14:31:24;15.90;27.00
16532;DHT22;66872;63.142;14.482;2023-12-22T14:33:50;15.90;27.00
16532;DHT22;66872;63.142;14.482;2023-12-22T14:36:15;15.90;27.10
16532;DHT22;66872;63.142;14.482;2023-12-22T14:38:42;15.90;27.00
16532;DHT22;66872;63.142;14.482;2023-12-22T14:41:08;15.90;27.50
16532;DHT22;66872;63.142;14.482;2023-12-22T14:43:34;15.90;27.50
16532;DHT22;66872;63.142;14.482;2023-12-22T14:45:59;15.90;27.00
16532;DHT22;66872;63.142;14.482;2023-12-22T14:48:25;15.90;27.00
16532;DHT22;66872;63.142;14.482;2023-12-22T14:50:51;15.90;27.00
16532;DHT22;66872;63.142;14.482;2023-12-22T14:53:16;15.90;27.00
16532;DHT22;66872;63.142;14.482;2023-12-22T14:55:42;15.90;27.00
16532;DHT22;66872;63.142;14.482;2023-12-22T14:58:08;15.90;27.00
16532;DHT22;66872;63.142;14.482;2023-12-22T15:00:35;15.90;27.00
16532;DHT22;66872;63.142;14.482;2023-12-22T15:03:01;15.90;27.00
16532;DHT22;66872;63.142;14.482;2023-12-22T15:05:27;15.90;27.00
16532;DHT22;66872;63.142;14.482;2023-12-22T15:07:55;15.90;26.90
16532;DHT22;66872;63.142;14.482;2023-12-22T15:10:21;15.90;26.90
16532;DHT22;66872;63.142;14.482;2023-12-22T15:12:46;15.90;26.90
16532;DHT22;66872;63.142;14.482;2023-12-22T15:15:13;15.90;26.90
16532;DHT22;66872;63.142;14.482;2023-12-22T15:17:39;15.90;26.90
16532;DHT22;66872;63.142;14.482;2023-12-22T15:20:05;15.90;26.90
16532;DHT22;66872;63.142;14.482;2023-12-22T15:22:31;15.90;26.90